Terminal Aerodrome Forecast
Issued by NWS

Home | Current Version | Previous Version | Text Only | Print | Product List | Glossary On
Versions: 1 2 3 4 5 6 7 8 9 10 11 12 13
000
FTUS46 KOTX 251139
TAFMWH
TAF
KMWH 251139Z 2512/2612 36004KT P6SM SKC
     FM251700 20007KT P6SM FEW250
     FM260200 20007KT P6SM FEW150 SCT200
     FM260500 26004KT P6SM FEW150 SCT200=

USA.gov is the U.S. government's official web portal to all federal, state and local government web resources and services.